Time;durP1;ratioP1;P1;durP2;ratioP2;P2;SDS_P1;SDS_P2;PMS_P1;PMS_P2;Temp;Humidity;BMP_temperature;BMP_pressure;BME280_temperature;BME280_humidity;BME280_pressure;Samples;Min_cycle;Max_cycle;Signal;HPM_P1;HPM_P2
2021/08/30 00:01:16;;;;;;;7.75;5.55;;;13.60;99.90;;;;;;6183963;28;20026;-80
2021/08/30 00:04:17;;;;;;;7.47;5.68;;;13.60;99.90;;;;;;6201175;28;20049;-81
2021/08/30 00:07:17;;;;;;;6.97;5.70;;;13.60;99.90;;;;;;6183806;28;20076;-80
2021/08/30 00:10:18;;;;;;;7.03;5.63;;;13.60;99.90;;;;;;6167685;28;20042;-80
2021/08/30 00:13:19;;;;;;;9.57;6.57;;;13.60;99.90;;;;;;6167798;28;20369;-79
2021/08/30 00:16:19;;;;;;;6.53;5.82;;;13.90;99.90;;;;;;6183665;28;20064;-81
2021/08/30 00:19:20;;;;;;;7.63;5.90;;;13.60;99.90;;;;;;6184081;28;20026;-78
2021/08/30 00:22:20;;;;;;;6.57;5.93;;;13.60;99.90;;;;;;6167276;28;20043;-80
2021/08/30 00:25:21;;;;;;;7.05;6.22;;;13.60;99.90;;;;;;6167136;28;20057;-80
2021/08/30 00:28:21;;;;;;;6.15;5.38;;;13.50;99.90;;;;;;6167253;28;20018;-80
2021/08/30 00:31:25;;;;;;;9.60;5.80;;;13.60;99.90;;;;;;6183459;28;20461;-81
2021/08/30 00:34:26;;;;;;;7.97;6.05;;;14.30;99.90;;;;;;6183929;28;20050;-81
2021/08/30 00:37:26;;;;;;;7.30;5.90;;;13.80;99.90;;;;;;6182607;28;20077;-81
2021/08/30 00:40:27;;;;;;;10.07;6.65;;;13.60;99.90;;;;;;6183068;28;20065;-81
2021/08/30 00:43:28;;;;;;;8.13;5.85;;;13.60;99.90;;;;;;6200419;28;20026;-82
2021/08/30 00:46:29;;;;;;;7.00;5.75;;;;;;;;;;6167546;28;20034;-80
2021/08/30 00:49:29;;;;;;;9.18;6.03;;;13.70;99.90;;;;;;6182556;28;20468;-81
2021/08/30 00:52:30;;;;;;;8.30;5.40;;;13.60;99.90;;;;;;6166673;28;20081;-80
2021/08/30 00:55:35;;;;;;;6.45;5.70;;;13.50;99.90;;;;;;6166996;28;20018;-80
2021/08/30 00:58:38;;;;;;;8.55;5.75;;;13.60;99.90;;;;;;6183377;28;20018;-80
2021/08/30 01:01:38;;;;;;;5.50;4.90;;;13.40;99.90;;;;;;6182935;28;20113;-81
2021/08/30 01:04:41;;;;;;;5.90;5.30;;;13.50;99.90;;;;;;6182311;28;20038;-80
2021/08/30 01:08:05;;;;;;;7.50;6.00;;;13.60;99.90;;;;;;6165813;28;20030;-82
2021/08/30 01:11:10;;;;;;;6.75;5.68;;;13.70;99.90;;;;;;6199819;28;20030;-80
2021/08/30 01:14:11;;;;;;;5.57;4.97;;;13.60;99.90;;;;;;6166353;28;20022;-81
2021/08/30 01:17:11;;;;;;;7.85;5.72;;;13.80;99.90;;;;;;6166045;28;20030;-82
2021/08/30 01:20:18;;;;;;;6.43;5.68;;;13.60;99.90;;;;;;6166342;28;20084;-81
2021/08/30 01:23:21;;;;;;;7.55;5.50;;;13.60;99.90;;;;;;6181897;28;20046;-83
2021/08/30 01:26:21;;;;;;;5.60;4.80;;;13.10;99.90;;;;;;6166335;28;20143;-82
2021/08/30 01:29:29;;;;;;;5.90;5.10;;;13.60;99.90;;;;;;6165752;28;20153;-80
2021/08/30 01:32:40;;;;;;;6.85;5.00;;;13.60;99.90;;;;;;6182506;28;20030;-80
2021/08/30 01:35:40;;;;;;;5.13;4.35;;;13.60;99.90;;;;;;6165881;28;20483;-80
2021/08/30 01:38:45;;;;;;;5.70;4.57;;;13.60;99.90;;;;;;6182462;28;20093;-80
2021/08/30 01:41:46;;;;;;;5.43;4.78;;;13.60;99.90;;;;;;6167350;28;20507;-80
2021/08/30 01:44:47;;;;;;;5.07;4.50;;;13.60;99.90;;;;;;6165553;28;20038;-83
2021/08/30 01:47:48;;;;;;;6.63;4.55;;;14.40;99.90;;;;;;6165872;28;20080;-81
2021/08/30 01:50:49;;;;;;;5.40;3.83;;;13.60;99.90;;;;;;6181778;28;20452;-80
2021/08/30 01:53:51;;;;;;;5.97;4.03;;;13.50;99.90;;;;;;6165897;28;20104;-81
2021/08/30 01:56:54;;;;;;;3.97;3.58;;;13.60;99.90;;;;;;6165685;28;20037;-83
2021/08/30 02:03:18;;;;;;;5.20;3.58;;;14.00;99.90;;;;;;6170274;28;20446;-80
2021/08/30 02:06:18;;;;;;;5.40;3.80;;;13.50;99.90;;;;;;6181608;28;20524;-82
2021/08/30 02:09:19;;;;;;;3.85;3.45;;;13.60;99.90;;;;;;6199004;28;20035;-81
2021/08/30 02:12:19;;;;;;;3.53;3.22;;;13.50;99.90;;;;;;6181379;28;20050;-80
2021/08/30 02:15:20;;;;;;;3.70;3.28;;;13.50;99.90;;;;;;6181186;28;20096;-81
2021/08/30 02:18:22;;;;;;;9.68;3.75;;;13.50;99.90;;;;;;6165810;28;20117;-80
2021/08/30 02:21:43;;;;;;;4.25;3.45;;;13.50;99.90;;;;;;6203512;28;20026;-83
2021/08/30 02:24:50;;;;;;;5.22;3.67;;;13.50;99.90;;;;;;6172366;28;20057;-81
2021/08/30 02:27:54;;;;;;;3.83;3.45;;;13.50;99.90;;;;;;6170248;28;20018;-80
2021/08/30 02:30:55;;;;;;;5.00;3.72;;;13.50;99.90;;;;;;6170663;28;20022;-80
2021/08/30 02:33:56;;;;;;;3.90;3.50;;;13.50;99.90;;;;;;6169636;28;20445;-81
2021/08/30 02:36:57;;;;;;;3.88;3.42;;;13.50;99.90;;;;;;6153287;28;20133;-84
2021/08/30 02:39:59;;;;;;;4.95;3.45;;;13.60;99.90;;;;;;6169863;28;20029;-80
2021/08/30 02:43:00;;;;;;;4.03;3.63;;;13.50;99.90;;;;;;6185989;28;20034;-83
2021/08/30 02:46:01;;;;;;;5.05;3.90;;;13.50;99.90;;;;;;6153678;28;20033;-80
2021/08/30 02:49:01;;;;;;;4.55;3.33;;;13.50;99.90;;;;;;6169613;28;20057;-81
2021/08/30 02:52:05;;;;;;;3.83;3.42;;;13.50;99.90;;;;;;6169500;28;20404;-84
2021/08/30 02:55:06;;;;;;;4.07;3.67;;;13.50;99.90;;;;;;6170196;28;20472;-80
2021/08/30 02:58:07;;;;;;;4.20;3.63;;;13.60;99.90;;;;;;6169387;28;20453;-80
2021/08/30 03:01:07;;;;;;;6.22;3.60;;;13.50;99.90;;;;;;6169855;28;20036;-81
2021/08/30 03:04:10;;;;;;;4.30;3.88;;;13.60;99.90;;;;;;6153236;28;20464;-84
2021/08/30 03:07:10;;;;;;;;;;;13.60;99.90;;;;;;6170260;28;20031;-81
2021/08/30 03:10:11;;;;;;;5.85;4.00;;;13.60;99.90;;;;;;6185767;28;19906;-84
2021/08/30 03:13:11;;;;;;;4.28;3.88;;;13.60;99.90;;;;;;6152753;28;20033;-83
2021/08/30 03:16:12;;;;;;;4.55;3.85;;;13.60;99.90;;;;;;6185216;28;20081;-80
2021/08/30 03:19:13;;;;;;;5.00;4.50;;;13.60;99.90;;;;;;6201187;28;20026;-82
2021/08/30 03:22:15;;;;;;;4.57;4.05;;;13.70;99.90;;;;;;6168639;28;20018;-81
2021/08/30 03:25:16;;;;;;;7.87;4.67;;;13.70;99.90;;;;;;6169068;28;20448;-81
2021/08/30 03:28:17;;;;;;;5.38;4.88;;;13.70;99.90;;;;;;6169021;28;20102;-83
2021/08/30 03:31:17;;;;;;;5.25;4.75;;;13.70;99.90;;;;;;6168277;28;20033;-80
2021/08/30 03:34:18;;;;;;;5.70;5.10;;;13.70;99.90;;;;;;6168646;28;20037;-81
2021/08/30 03:37:19;;;;;;;5.93;5.10;;;13.70;99.90;;;;;;6168147;28;20057;-81
2021/08/30 03:40:19;;;;;;;5.95;5.35;;;13.70;99.90;;;;;;6168692;28;20475;-83
2021/08/30 03:43:20;;;;;;;7.43;5.63;;;13.70;99.90;;;;;;6168331;28;20038;-84
2021/08/30 03:46:21;;;;;;;6.57;5.50;;;13.70;99.90;;;;;;6184373;28;20033;-81
2021/08/30 03:49:22;;;;;;;5.93;5.32;;;13.70;99.90;;;;;;6184098;28;20024;-80
2021/08/30 03:52:23;;;;;;;6.78;6.07;;;13.70;99.90;;;;;;6168298;28;20073;-80
2021/08/30 03:55:24;;;;;;;7.03;5.85;;;13.90;99.90;;;;;;6184272;28;20054;-80
2021/08/30 03:58:24;;;;;;;6.65;5.50;;;13.80;99.90;;;;;;6184281;28;20520;-80
2021/08/30 04:01:25;;;;;;;6.70;5.80;;;14.00;99.90;;;;;;6167927;28;20038;-80
2021/08/30 04:04:26;;;;;;;5.90;5.28;;;13.90;99.90;;;;;;6168118;28;20045;-81
2021/08/30 04:07:26;;;;;;;6.13;5.35;;;13.80;99.90;;;;;;6168148;28;20365;-83
2021/08/30 04:10:28;;;;;;;5.85;5.10;;;13.70;99.90;;;;;;6183966;28;20034;-81
2021/08/30 04:13:28;;;;;;;6.90;6.03;;;13.70;99.90;;;;;;6168390;28;20026;-83
2021/08/30 04:16:29;;;;;;;6.95;6.25;;;;;;;;;;6151716;28;20060;-80
2021/08/30 04:19:30;;;;;;;6.78;6.07;;;13.00;99.90;;;;;;6200987;28;20027;-82
2021/08/30 04:22:35;;;;;;;7.57;6.15;;;13.80;99.90;;;;;;6199851;28;20069;-80
2021/08/30 04:25:35;;;;;;;6.57;5.95;;;13.60;99.90;;;;;;6184283;28;20361;-81
2021/08/30 04:28:36;;;;;;;6.50;5.90;;;13.60;99.90;;;;;;6167486;28;20026;-81
2021/08/30 04:31:37;;;;;;;6.68;5.90;;;13.70;99.90;;;;;;6167509;28;20034;-81
2021/08/30 04:34:38;;;;;;;6.93;6.10;;;13.60;99.90;;;;;;6167243;28;20468;-80
2021/08/30 04:37:39;;;;;;;6.00;5.40;;;13.60;99.90;;;;;;6182817;28;20054;-83
2021/08/30 04:40:40;;;;;;;5.95;5.35;;;;;;;;;;6182764;28;20037;-80
2021/08/30 04:43:40;;;;;;;6.60;5.63;;;13.70;99.90;;;;;;6181927;28;20143;-84
2021/08/30 04:46:41;;;;;;;7.60;5.43;;;13.60;99.90;;;;;;6167053;28;20074;-81
2021/08/30 04:49:42;;;;;;;6.50;5.30;;;13.70;99.90;;;;;;6166694;28;20441;-81
2021/08/30 04:52:42;;;;;;;7.47;5.47;;;13.60;99.90;;;;;;6166919;28;20026;-81
2021/08/30 04:55:43;;;;;;;6.60;5.63;;;13.70;99.90;;;;;;6166758;28;20112;-82
2021/08/30 04:58:43;;;;;;;6.88;5.63;;;13.70;99.90;;;;;;6167034;28;20026;-81
2021/08/30 05:01:44;;;;;;;6.50;5.35;;;13.70;99.90;;;;;;6182473;28;20045;-81
2021/08/30 05:04:44;;;;;;;6.07;5.47;;;13.60;99.90;;;;;;6182907;28;20121;-79
2021/08/30 05:07:45;;;;;;;8.48;5.18;;;13.60;99.90;;;;;;6199988;28;20026;-83
2021/08/30 05:10:46;;;;;;;7.15;5.18;;;13.70;99.90;;;;;;6200317;28;20026;-81
2021/08/30 05:13:46;;;;;;;6.97;5.35;;;13.70;99.90;;;;;;6182685;28;20113;-83
2021/08/30 05:16:47;;;;;;;5.35;4.75;;;13.70;99.90;;;;;;6166538;28;20030;-84
2021/08/30 05:19:47;;;;;;;5.43;4.93;;;13.70;99.90;;;;;;6166526;28;20105;-81
2021/08/30 05:22:48;;;;;;;5.53;4.80;;;13.70;99.90;;;;;;6150267;28;20038;-84
2021/08/30 05:25:48;;;;;;;5.47;4.82;;;13.60;99.90;;;;;;6166578;28;20030;-83
2021/08/30 05:28:49;;;;;;;5.63;5.00;;;13.80;99.90;;;;;;6149118;28;20026;-82
2021/08/30 05:31:50;;;;;;;6.10;5.10;;;13.80;99.90;;;;;;6166093;28;20022;-83
2021/08/30 05:34:50;;;;;;;6.05;5.45;;;13.90;99.90;;;;;;6165429;28;20049;-82
2021/08/30 05:37:51;;;;;;;5.28;4.78;;;13.90;99.90;;;;;;6165799;28;20046;-82
2021/08/30 05:40:51;;;;;;;6.18;5.47;;;13.90;99.90;;;;;;6166058;28;20022;-84
2021/08/30 05:43:52;;;;;;;7.65;4.90;;;13.90;99.90;;;;;;6181661;28;20050;-87
2021/08/30 05:46:53;;;;;;;5.72;4.65;;;13.90;99.90;;;;;;6180041;28;20018;-82
2021/08/30 05:49:53;;;;;;;6.00;4.95;;;13.60;99.90;;;;;;6165767;28;20022;-82
2021/08/30 05:52:55;;;;;;;6.15;5.13;;;13.90;99.90;;;;;;6164719;28;20038;-83
2021/08/30 05:55:55;;;;;;;5.38;4.47;;;13.90;99.90;;;;;;6166143;28;20098;-81
2021/08/30 05:58:56;;;;;;;5.68;4.80;;;14.00;99.90;;;;;;6165696;28;20022;-82
2021/08/30 06:01:56;;;;;;;5.78;5.00;;;14.50;99.90;;;;;;6181528;28;20072;-82
2021/08/30 06:04:58;;;;;;;7.03;4.90;;;14.00;99.90;;;;;;6149826;28;20102;-83
2021/08/30 06:07:59;;;;;;;5.43;4.65;;;14.10;99.90;;;;;;6165189;28;20042;-82
2021/08/30 06:11:00;;;;;;;5.95;4.15;;;14.10;99.90;;;;;;6181575;28;20069;-81
2021/08/30 06:14:01;;;;;;;6.93;5.35;;;14.10;99.90;;;;;;6165202;28;20065;-81
2021/08/30 06:17:01;;;;;;;7.05;5.10;;;14.10;99.90;;;;;;6181384;28;20097;-83
2021/08/30 06:20:02;;;;;;;6.13;4.97;;;14.10;99.90;;;;;;6165819;28;20130;-85
2021/08/30 06:23:03;;;;;;;6.82;5.13;;;14.10;99.90;;;;;;6165270;28;20783;-82
2021/08/30 06:26:03;;;;;;;5.68;5.07;;;14.10;99.90;;;;;;6165070;28;20030;-82
2021/08/30 06:29:05;;;;;;;6.05;4.68;;;14.20;99.90;;;;;;6165276;28;20022;-84
2021/08/30 06:32:06;;;;;;;6.28;5.07;;;14.20;99.90;;;;;;6165149;28;20034;-84
2021/08/30 06:35:07;;;;;;;5.80;5.20;;;14.30;99.90;;;;;;6181355;28;20045;-81
2021/08/30 06:38:09;;;;;;;6.72;5.10;;;14.30;99.90;;;;;;6198202;28;20053;-81
2021/08/30 06:41:10;;;;;;;6.22;4.72;;;14.30;99.90;;;;;;6164809;28;20062;-81
2021/08/30 06:44:10;;;;;;;5.68;4.55;;;14.30;99.90;;;;;;6195453;28;20041;-83
2021/08/30 06:47:11;;;;;;;6.10;5.32;;;14.40;99.90;;;;;;6180612;28;20026;-83
2021/08/30 06:50:11;;;;;;;6.07;5.45;;;14.40;99.90;;;;;;6197769;28;20037;-81
2021/08/30 06:53:13;;;;;;;6.65;5.45;;;14.40;99.90;;;;;;6197863;28;20041;-81
2021/08/30 06:56:13;;;;;;;6.03;5.20;;;14.40;99.90;;;;;;6164418;28;20154;-80
2021/08/30 06:59:14;;;;;;;6.10;5.32;;;14.40;99.90;;;;;;6164969;28;20026;-81
2021/08/30 07:02:15;;;;;;;7.40;5.20;;;14.40;99.90;;;;;;6198379;28;20022;-83
2021/08/30 07:05:15;;;;;;;6.65;5.50;;;14.40;99.90;;;;;;6181197;28;20069;-83
2021/08/30 07:08:17;;;;;;;6.35;5.72;;;14.40;99.90;;;;;;6185507;28;20019;-80
2021/08/30 07:11:18;;;;;;;6.20;5.60;;;14.40;99.90;;;;;;6169623;28;20108;-81
2021/08/30 07:14:18;;;;;;;6.10;5.50;;;14.40;99.90;;;;;;6185210;28;20027;-84
2021/08/30 07:17:19;;;;;;;6.93;5.45;;;14.50;99.90;;;;;;6185256;28;20030;-81
2021/08/30 07:20:19;;;;;;;6.90;6.20;;;14.50;99.90;;;;;;6169070;28;20364;-80
2021/08/30 07:23:20;;;;;;;6.68;5.97;;;14.40;99.90;;;;;;6179522;28;20117;-83
2021/08/30 07:26:21;;;;;;;8.05;6.63;;;14.50;99.90;;;;;;6180547;28;20478;-84
2021/08/30 07:29:21;;;;;;;6.78;6.07;;;14.20;99.90;;;;;;6148358;28;20105;-80
2021/08/30 07:32:22;;;;;;;7.22;5.68;;;14.60;99.90;;;;;;6197695;28;20030;-81
2021/08/30 07:35:23;;;;;;;5.78;5.18;;;14.30;99.90;;;;;;6164240;28;20034;-81
2021/08/30 07:38:24;;;;;;;6.32;5.47;;;14.40;99.90;;;;;;6179829;28;20058;-81
2021/08/30 07:41:25;;;;;;;6.03;5.07;;;14.30;99.90;;;;;;6179473;28;20527;-87
2021/08/30 07:44:26;;;;;;;6.05;5.45;;;14.40;99.90;;;;;;6163469;28;20064;-84
2021/08/30 07:47:27;;;;;;;6.95;5.10;;;14.40;99.90;;;;;;6181067;28;20133;-82
2021/08/30 07:50:27;;;;;;;6.28;4.93;;;14.40;99.90;;;;;;6147570;28;20042;-84
2021/08/30 07:53:29;;;;;;;5.90;5.00;;;;;;;;;;6147527;28;20069;-85
2021/08/30 07:56:30;;;;;;;5.65;5.15;;;14.50;99.90;;;;;;6179665;28;20105;-86
2021/08/30 07:59:31;;;;;;;6.45;5.75;;;;;;;;;;6162983;28;20556;-82
2021/08/30 08:02:32;;;;;;;6.73;6.00;;;;;;;;;;6179726;28;20041;-85
2021/08/30 08:05:33;;;;;;;5.80;5.30;;;;;;;;;;6197123;28;20022;-80
2021/08/30 08:08:34;;;;;;;4.65;4.22;;;14.40;99.90;;;;;;6179384;28;20030;-79
2021/08/30 08:11:34;;;;;;;5.47;4.40;;;14.60;99.90;;;;;;6179267;28;20081;-83
2021/08/30 08:14:35;;;;;;;4.80;4.30;;;14.40;99.90;;;;;;6147591;28;20564;-82
2021/08/30 08:17:36;;;;;;;4.30;3.90;;;14.50;99.90;;;;;;6147525;28;20448;-85
2021/08/30 08:20:37;;;;;;;5.28;3.88;;;14.50;99.90;;;;;;6163925;28;20033;-83
2021/08/30 08:23:38;;;;;;;4.47;4.05;;;14.50;99.90;;;;;;6163238;28;20125;-82
2021/08/30 08:26:38;;;;;;;6.22;4.60;;;14.50;99.90;;;;;;6163520;28;20069;-84
2021/08/30 08:29:39;;;;;;;6.28;4.88;;;14.50;99.90;;;;;;6163415;28;20082;-82
2021/08/30 08:32:41;;;;;;;3.90;3.50;;;14.50;99.90;;;;;;6162600;28;20022;-83
2021/08/30 08:35:42;;;;;;;5.10;3.58;;;14.60;99.90;;;;;;6163129;28;20034;-83
2021/08/30 08:38:43;;;;;;;3.90;3.50;;;14.60;99.90;;;;;;6162577;28;20469;-82
2021/08/30 08:41:43;;;;;;;5.95;3.67;;;14.60;99.90;;;;;;6160629;28;20025;-81
2021/08/30 08:44:47;;;;;;;4.57;3.97;;;14.80;99.90;;;;;;6146461;28;20431;-84
2021/08/30 08:47:48;;;;;;;5.78;4.20;;;14.70;99.90;;;;;;6145431;28;20030;-86
2021/08/30 08:50:49;;;;;;;6.15;4.28;;;14.70;99.90;;;;;;6162153;28;20117;-82
2021/08/30 08:53:49;;;;;;;6.00;4.43;;;14.90;99.90;;;;;;6146725;28;20026;-85
2021/08/30 08:56:51;;;;;;;3.17;2.88;;;15.10;99.90;;;;;;6162075;28;20040;-85
2021/08/30 08:59:58;;;;;;;3.47;3.17;;;15.20;99.90;;;;;;6178053;28;20029;-82
2021/08/30 09:02:59;;;;;;;3.92;3.53;;;15.10;99.90;;;;;;6178118;28;20042;-85
2021/08/30 09:06:05;;;;;;;4.20;3.70;;;15.10;99.90;;;;;;6178244;28;20093;-82
2021/08/30 09:09:08;;;;;;;4.35;3.95;;;15.00;99.90;;;;;;6163333;28;20027;-83
2021/08/30 09:12:21;;;;;;;4.63;3.83;;;15.00;99.90;;;;;;6161899;28;20026;-81
2021/08/30 09:15:24;;;;;;;5.32;4.32;;;15.00;99.90;;;;;;6162462;28;20453;-82
2021/08/30 09:18:29;;;;;;;5.20;4.47;;;15.00;99.90;;;;;;6161950;28;20040;-84
2021/08/30 09:21:30;;;;;;;5.38;4.60;;;15.10;99.90;;;;;;6161385;28;20065;-82
2021/08/30 09:24:31;;;;;;;4.60;4.10;;;15.10;99.90;;;;;;6177752;28;20030;-85
2021/08/30 09:27:41;;;;;;;4.65;4.18;;;15.10;99.90;;;;;;6161598;28;20037;-82
2021/08/30 09:30:41;;;;;;;5.55;4.55;;;15.20;99.90;;;;;;6161448;28;20069;-81
2021/08/30 09:33:48;;;;;;;5.10;4.57;;;15.30;99.90;;;;;;6161665;28;20034;-82
2021/08/30 09:36:52;;;;;;;5.97;4.45;;;15.40;99.90;;;;;;6160382;28;20046;-82
2021/08/30 09:39:58;;;;;;;5.38;4.00;;;15.60;99.90;;;;;;6145461;28;20033;-86
2021/08/30 09:42:58;;;;;;;4.30;3.88;;;15.60;99.90;;;;;;6161053;28;20042;-84
2021/08/30 09:46:03;;;;;;;4.18;3.78;;;15.60;99.90;;;;;;6145371;28;20041;-85
2021/08/30 09:49:07;;;;;;;4.13;3.70;;;15.70;99.90;;;;;;6144962;28;20038;-85
2021/08/30 09:52:08;;;;;;;4.93;4.43;;;15.70;99.90;;;;;;6160834;28;20505;-83
2021/08/30 09:55:09;;;;;;;5.93;4.57;;;15.80;99.90;;;;;;6145420;28;20031;-84
2021/08/30 09:58:10;;;;;;;6.53;5.35;;;15.70;99.90;;;;;;6144296;28;20022;-83
2021/08/30 10:01:10;;;;;;;6.82;6.13;;;;;;;;;;6144716;28;20550;-83
2021/08/30 10:04:11;;;;;;;7.53;6.72;;;15.80;99.90;;;;;;6176927;28;20038;-83
2021/08/30 10:07:12;;;;;;;6.78;6.05;;;15.40;99.90;;;;;;6161209;28;20035;-83
2021/08/30 10:10:16;;;;;;;6.57;5.88;;;15.90;99.90;;;;;;6144190;28;20449;-83
2021/08/30 10:13:20;;;;;;;6.97;6.28;;;16.00;99.90;;;;;;6161286;28;20066;-83
2021/08/30 10:16:21;;;;;;;8.25;7.18;;;15.90;99.90;;;;;;6160952;28;20018;-83
2021/08/30 10:19:30;;;;;;;8.07;7.28;;;15.90;99.90;;;;;;6161507;28;20476;-84
2021/08/30 10:22:30;;;;;;;8.88;8.02;;;16.00;99.90;;;;;;6158821;28;20057;-86
2021/08/30 10:25:39;;;;;;;8.48;7.57;;;15.90;99.90;;;;;;6146207;28;20100;-86
2021/08/30 10:28:45;;;;;;;10.05;7.05;;;16.10;99.90;;;;;;6161113;28;20162;-84
2021/08/30 10:31:50;;;;;;;7.97;7.18;;;15.90;99.90;;;;;;6161328;28;20086;-85
2021/08/30 10:34:54;;;;;;;8.73;7.78;;;15.90;99.90;;;;;;6160377;28;20030;-84
2021/08/30 10:37:58;;;;;;;8.93;7.97;;;16.10;99.90;;;;;;6143442;28;20047;-84
2021/08/30 10:40:59;;;;;;;10.77;9.40;;;16.10;99.90;;;;;;6163024;28;20026;-83
2021/08/30 10:44:14;;;;;;;8.82;7.57;;;16.30;99.90;;;;;;6148452;28;20551;-85
2021/08/30 10:47:14;;;;;;;8.13;7.25;;;16.50;99.90;;;;;;6166748;28;20038;-86
2021/08/30 10:50:19;;;;;;;8.98;7.28;;;16.80;99.90;;;;;;6164719;28;20022;-86
2021/08/30 10:53:22;;;;;;;7.95;6.90;;;16.70;99.90;;;;;;6149165;28;20030;-85
2021/08/30 10:56:30;;;;;;;7.95;7.15;;;16.60;99.90;;;;;;6165042;28;20129;-84
2021/08/30 10:59:31;;;;;;;7.50;6.80;;;16.50;99.90;;;;;;6165775;28;20034;-86
2021/08/30 11:02:50;;;;;;;8.25;7.05;;;16.70;99.90;;;;;;6148349;28;20034;-84
2021/08/30 11:06:08;;;;;;;7.22;5.88;;;16.80;99.90;;;;;;6164989;28;20031;-86
2021/08/30 11:09:18;;;;;;;6.63;5.95;;;17.10;99.90;;;;;;6166414;28;20049;-84
2021/08/30 11:12:19;;;;;;;8.05;6.88;;;16.90;99.90;;;;;;6165007;28;20034;-88
2021/08/30 11:15:20;;;;;;;8.93;7.72;;;;;;;;;;6164766;28;20027;-87
2021/08/30 11:18:21;;;;;;;10.30;7.78;;;;;;;;;;6181548;28;20049;-87
2021/08/30 11:21:44;;;;;;;8.55;7.60;;;17.10;99.90;;;;;;6180989;28;20109;-89
2021/08/30 11:24:45;;;;;;;10.32;8.75;;;;;;;;;;6197162;28;20046;-87
2021/08/30 11:27:46;;;;;;;9.95;7.70;;;;;;;;;;6179972;28;20030;-86
2021/08/30 11:30:47;;;;;;;9.05;7.32;;;;;;;;;;6181340;28;20447;-86
2021/08/30 11:33:48;;;;;;;9.30;8.30;;;;;;;;;;6180503;28;20034;-86
2021/08/30 11:36:49;;;;;;;10.63;9.52;;;16.60;99.90;;;;;;6180598;28;20166;-89
2021/08/30 11:39:51;;;;;;;12.13;9.75;;;16.70;99.90;;;;;;6163882;28;20479;-84
2021/08/30 11:42:52;;;;;;;12.48;9.48;;;16.50;99.90;;;;;;6163127;28;20081;-84
2021/08/30 11:45:52;;;;;;;9.45;8.45;;;;;;;;;;6179581;28;20045;-89
2021/08/30 11:48:57;;;;;;;10.75;9.68;;;16.80;99.90;;;;;;6179098;28;20026;-84
2021/08/30 11:51:59;;;;;;;11.13;9.90;;;17.40;99.90;;;;;;6146823;28;20030;-84
2021/08/30 11:55:02;;;;;;;10.77;9.32;;;17.30;99.90;;;;;;6164004;28;20034;-85
2021/08/30 11:58:03;;;;;;;11.13;9.57;;;17.50;99.90;;;;;;6180654;28;20061;-88
2021/08/30 12:01:04;;;;;;;9.85;8.85;;;17.80;99.90;;;;;;6164694;28;20030;-88
2021/08/30 12:04:16;;;;;;;9.70;8.70;;;17.50;99.90;;;;;;6164113;28;20045;-86
2021/08/30 12:07:17;;;;;;;10.27;9.15;;;17.50;99.90;;;;;;6164112;28;20057;-88
2021/08/30 12:10:17;;;;;;;9.25;8.07;;;17.90;99.90;;;;;;6164051;28;20030;-89
2021/08/30 12:16:27;;;;;;;9.00;8.05;;;17.80;99.90;;;;;;6166194;28;20033;-88
2021/08/30 12:19:28;;;;;;;9.00;8.10;;;17.90;99.90;;;;;;6147112;28;20113;-87
2021/08/30 12:22:37;;;;;;;10.10;8.07;;;17.90;99.90;;;;;;6163784;28;20042;-87
2021/08/30 12:25:39;;;;;;;9.57;8.57;;;18.10;99.90;;;;;;6180096;28;20039;-86
2021/08/30 12:28:45;;;;;;;9.68;8.68;;;18.20;99.90;;;;;;6147485;28;20147;-87
2021/08/30 12:31:53;;;;;;;12.07;8.95;;;18.00;99.90;;;;;;6147336;28;20070;-86
2021/08/30 12:34:53;;;;;;;10.98;9.07;;;18.00;99.90;;;;;;6163616;28;20345;-86
2021/08/30 12:37:55;;;;;;;9.70;8.70;;;;;;;;;;6161486;28;20149;-86
2021/08/30 12:40:57;;;;;;;10.53;9.33;;;17.60;99.90;;;;;;6179074;28;20515;-85
2021/08/30 12:43:58;;;;;;;11.02;9.45;;;17.50;99.90;;;;;;6146597;28;20041;-85
2021/08/30 12:46:58;;;;;;;10.57;9.57;;;17.50;99.90;;;;;;6162356;28;20030;-89
2021/08/30 12:49:59;;;;;;;11.05;9.95;;;17.30;99.90;;;;;;6162675;28;20057;-87
2021/08/30 12:53:00;;;;;;;10.90;9.73;;;16.80;99.90;;;;;;6146586;28;20140;-84
2021/08/30 12:56:00;;;;;;;10.60;9.50;;;17.40;99.90;;;;;;6146596;28;20034;-84
2021/08/30 12:59:01;;;;;;;10.02;8.98;;;17.20;99.90;;;;;;6162385;28;20026;-84
2021/08/30 13:02:02;;;;;;;9.52;7.95;;;17.30;99.90;;;;;;6162339;28;20080;-86
2021/08/30 13:05:02;;;;;;;10.32;8.82;;;17.50;99.90;;;;;;6160738;28;20084;-86
2021/08/30 13:08:03;;;;;;;8.77;7.88;;;17.70;99.90;;;;;;6146381;28;20419;-87
2021/08/30 13:11:04;;;;;;;9.60;8.35;;;17.90;99.90;;;;;;6146224;28;20056;-87
2021/08/30 13:14:05;;;;;;;13.10;8.88;;;18.10;99.90;;;;;;6161936;28;20453;-85
2021/08/30 13:17:05;;;;;;;9.70;8.40;;;18.00;99.90;;;;;;6145308;28;20030;-86
2021/08/30 13:20:07;;;;;;;9.50;8.50;;;18.00;99.90;;;;;;6161489;28;20117;-85
2021/08/30 13:23:09;;;;;;;8.70;7.80;;;18.10;99.90;;;;;;6161514;28;20499;-85
2021/08/30 13:26:15;;;;;;;9.15;7.65;;;18.00;99.90;;;;;;6161325;28;20538;-85
2021/08/30 13:29:16;;;;;;;10.70;9.07;;;18.10;99.90;;;;;;6177890;28;20034;-88
2021/08/30 13:32:17;;;;;;;10.35;8.68;;;18.30;99.90;;;;;;6161197;28;20030;-87
2021/08/30 13:35:18;;;;;;;8.15;7.32;;;;;;;;;;6145824;28;20034;-87
2021/08/30 13:38:21;;;;;;;10.13;7.82;;;18.60;99.90;;;;;;6177156;28;20093;-86
2021/08/30 13:41:21;;;;;;;7.95;6.95;;;18.70;99.90;;;;;;6162637;28;20452;-84
2021/08/30 13:44:22;;;;;;;7.80;7.00;;;19.10;99.90;;;;;;6162287;28;20042;-87
2021/08/30 13:47:23;;;;;;;8.15;7.35;;;;;;;;;;6161324;28;20793;-88
2021/08/30 13:50:24;;;;;;;9.65;7.80;;;19.50;99.90;;;;;;6178347;28;20491;-86
2021/08/30 13:53:24;;;;;;;7.88;7.07;;;19.40;99.90;;;;;;6145404;28;20027;-86
2021/08/30 13:56:25;;;;;;;7.25;6.53;;;;;;;;;;6145911;28;20022;-86
2021/08/30 13:59:26;;;;;;;7.85;6.95;;;19.40;99.90;;;;;;6177522;28;20847;-86
2021/08/30 14:02:27;;;;;;;8.18;7.38;;;19.40;99.90;;;;;;6161706;28;20049;-86
2021/08/30 14:05:28;;;;;;;8.00;6.88;;;19.60;99.90;;;;;;6145649;28;20030;-87
2021/08/30 14:08:28;;;;;;;7.47;6.68;;;19.80;99.90;;;;;;6161217;28;20054;-87
2021/08/30 14:11:29;;;;;;;7.93;7.13;;;19.90;99.90;;;;;;6161093;28;20022;-80
2021/08/30 14:14:30;;;;;;;6.30;5.70;;;19.90;99.90;;;;;;6160606;28;20034;-80
2021/08/30 14:17:31;;;;;;;8.07;7.27;;;;;;;;;;6161218;28;20448;-80
2021/08/30 14:20:32;;;;;;;9.32;6.90;;;20.00;99.90;;;;;;6194249;28;20273;-83
2021/08/30 14:23:33;;;;;;;7.75;6.95;;;;;;;;;;6176597;28;20451;-81
2021/08/30 14:26:34;;;;;;;7.00;6.30;;;19.30;99.90;;;;;;6194201;28;20065;-79
2021/08/30 14:29:35;;;;;;;9.10;6.55;;;18.90;99.90;;;;;;6176666;28;20043;-79
2021/08/30 14:32:36;;;;;;;7.68;6.97;;;;;;;;;;6176226;28;20034;-84
2021/08/30 14:35:37;;;;;;;7.57;6.88;;;;;;;;;;6177432;28;20030;-87
2021/08/30 14:38:38;;;;;;;18.10;12.00;;;18.40;99.90;;;;;;6177804;28;20384;-87
2021/08/30 14:41:39;;;;;;;16.05;11.73;;;;;;;;;;6161474;28;20053;-87
2021/08/30 14:44:40;;;;;;;9.95;8.52;;;;;;;;;;6177170;28;20476;-86
2021/08/30 14:47:41;;;;;;;21.50;16.27;;;18.00;99.90;;;;;;6177706;28;20042;-86
2021/08/30 14:50:42;;;;;;;20.38;14.57;;;17.80;99.90;;;;;;6161578;28;20018;-86
2021/08/30 14:53:43;;;;;;;14.87;11.47;;;17.70;99.90;;;;;;6145575;28;20080;-85
2021/08/30 14:56:44;;;;;;;10.98;9.65;;;;;;;;;;6146187;28;20026;-87
2021/08/30 14:59:44;;;;;;;10.80;8.63;;;17.50;99.90;;;;;;6178018;28;20026;-86
2021/08/30 15:02:45;;;;;;;9.70;8.63;;;17.30;99.90;;;;;;6161239;28;20042;-86
2021/08/30 15:05:46;;;;;;;10.38;9.10;;;17.20;99.90;;;;;;6146082;28;20021;-88
2021/08/30 15:08:47;;;;;;;9.83;8.80;;;;;;;;;;6161126;28;20778;-86
2021/08/30 15:11:48;;;;;;;9.25;8.30;;;17.10;99.90;;;;;;6177419;28;20794;-87
2021/08/30 15:15:08;;;;;;;10.35;8.73;;;17.10;99.90;;;;;;6159878;28;20129;-86
2021/08/30 15:18:09;;;;;;;9.80;8.55;;;17.10;99.90;;;;;;6160554;28;20041;-86
2021/08/30 15:21:10;;;;;;;10.68;8.20;;;17.10;99.90;;;;;;6144613;28;20356;-88
2021/08/30 15:24:11;;;;;;;9.18;7.93;;;;;;;;;;6144313;28;20137;-85
2021/08/30 15:27:12;;;;;;;9.30;7.78;;;16.90;99.90;;;;;;6176424;28;20506;-87
2021/08/30 15:30:13;;;;;;;8.63;7.15;;;16.80;99.90;;;;;;6147404;28;20034;-85
2021/08/30 15:33:17;;;;;;;8.82;7.93;;;16.80;99.90;;;;;;6165306;28;20380;-86
2021/08/30 15:36:18;;;;;;;9.48;8.45;;;16.80;99.90;;;;;;6149275;28;20077;-88
2021/08/30 15:39:18;;;;;;;8.52;7.68;;;17.10;99.90;;;;;;6164988;28;20567;-86
2021/08/30 15:42:19;;;;;;;8.57;7.47;;;17.00;99.90;;;;;;6152610;28;20130;-86
2021/08/30 15:45:20;;;;;;;8.73;7.00;;;;;;;;;;6167124;28;20046;-87
2021/08/30 15:48:21;;;;;;;7.80;6.78;;;17.30;99.90;;;;;;6181530;28;20575;-87
2021/08/30 15:51:22;;;;;;;10.52;7.93;;;;;;;;;;6166879;28;20121;-85
2021/08/30 15:54:23;;;;;;;12.05;8.05;;;17.50;99.90;;;;;;6182051;28;20122;-85
2021/08/30 15:57:24;;;;;;;8.43;7.63;;;17.60;99.90;;;;;;6148718;28;20485;-84
2021/08/30 16:00:24;;;;;;;9.02;7.35;;;17.50;99.90;;;;;;6148203;28;20034;-89
2021/08/30 16:03:26;;;;;;;10.88;7.78;;;17.60;99.90;;;;;;6164077;28;20072;-85